Time;durP1;ratioP1;P1;durP2;ratioP2;P2;SDS_P1;SDS_P2;PMS_P1;PMS_P2;Temp;Humidity;BMP_temperature;BMP_pressure;BME280_temperature;BME280_humidity;BME280_pressure;Samples;Min_cycle;Max_cycle;Signal;HPM_P1;HPM_P2
2023/09/27 00:01:49;;;;;;;12.07;6.38;;;;;;;13.58;100.00;101679.03;4937155;28;20383;-78
2023/09/27 00:04:15;;;;;;;12.30;6.13;;;;;;;13.55;100.00;101681.97;4932853;28;20039;-78
2023/09/27 00:06:41;;;;;;;16.52;5.82;;;;;;;13.53;100.00;101684.72;4948854;28;20036;-80
2023/09/27 00:09:08;;;;;;;9.05;6.60;;;;;;;13.52;100.00;101679.66;4945646;28;20050;-79
2023/09/27 00:11:34;;;;;;;9.73;6.18;;;;;;;13.49;100.00;101686.03;4945701;28;20055;-78
2023/09/27 00:14:00;;;;;;;10.45;6.13;;;;;;;13.48;100.00;101679.16;4930197;28;20394;-78
2023/09/27 00:16:25;;;;;;;16.92;6.10;;;;;;;13.48;100.00;101686.97;4951914;28;20541;-78
2023/09/27 00:18:51;;;;;;;9.25;6.03;;;;;;;13.48;100.00;101688.78;4928996;28;20900;-78
2023/09/27 00:21:17;;;;;;;12.68;6.20;;;;;;;13.46;100.00;101696.72;4945432;28;20047;-78
2023/09/27 00:23:42;;;;;;;9.65;6.68;;;;;;;13.46;100.00;101707.16;4923551;28;20047;-78
2023/09/27 00:26:08;;;;;;;9.05;6.38;;;;;;;13.48;100.00;101715.63;4951061;28;20306;-78
2023/09/27 00:28:33;;;;;;;10.82;6.80;;;;;;;13.48;100.00;101717.44;4936724;28;20042;-81
2023/09/27 00:30:59;;;;;;;12.10;6.95;;;;;;;13.48;100.00;101726.06;4930612;28;20115;-78
2023/09/27 00:33:24;;;;;;;11.90;6.43;;;;;;;13.45;100.00;101731.59;4941261;28;20038;-80
2023/09/27 00:35:50;;;;;;;10.90;6.63;;;;;;;13.44;100.00;101735.97;4924267;28;21093;-78
2023/09/27 00:38:16;;;;;;;12.18;6.38;;;;;;;13.37;100.00;101727.13;4935702;28;20085;-78
2023/09/27 00:40:46;;;;;;;8.30;5.78;;;;;;;13.30;100.00;101726.09;4956103;28;20032;-78
2023/09/27 00:43:27;;;;;;;11.05;6.28;;;;;;;13.23;100.00;101725.03;4932241;28;20398;-78
2023/09/27 00:45:56;;;;;;;11.60;6.57;;;;;;;13.19;100.00;101728.91;4949224;28;20043;-80
2023/09/27 00:48:23;;;;;;;10.15;6.80;;;;;;;13.17;100.00;101741.28;4951125;28;20063;-78
2023/09/27 00:50:51;;;;;;;9.60;6.30;;;;;;;13.16;100.00;101748.25;4936126;28;20047;-78
2023/09/27 00:53:17;;;;;;;10.73;6.55;;;;;;;13.18;100.00;101750.69;4943417;28;20047;-78
2023/09/27 00:55:43;;;;;;;11.32;6.28;;;;;;;13.17;100.00;101742.09;4925040;28;20115;-77
2023/09/27 00:58:09;;;;;;;12.52;7.05;;;;;;;13.18;100.00;101745.50;4922748;28;20258;-78
2023/09/27 01:00:37;;;;;;;12.77;6.60;;;;;;;13.17;100.00;101749.91;4939031;28;20074;-78
2023/09/27 01:03:04;;;;;;;14.05;6.90;;;;;;;13.16;100.00;101755.25;4948900;28;20557;-77
2023/09/27 01:05:30;;;;;;;12.75;6.25;;;;;;;13.13;100.00;101752.94;4954301;28;20043;-78
2023/09/27 01:07:55;;;;;;;10.60;6.07;;;;;;;13.09;100.00;101752.44;4938526;28;20050;-77
2023/09/27 01:10:21;;;;;;;11.43;6.57;;;;;;;13.05;100.00;101746.72;4919495;28;20050;-78
2023/09/27 01:12:46;;;;;;;9.32;6.68;;;;;;;12.98;100.00;101734.44;4919687;28;20047;-78
2023/09/27 01:15:12;;;;;;;10.27;5.85;;;;;;;12.91;100.00;101725.59;4935110;28;20407;-78
2023/09/27 01:18:00;;;;;;;8.70;6.03;;;;;;;12.86;100.00;101726.00;4935366;29;20052;-79
2023/09/27 01:20:28;;;;;;;8.93;5.68;;;;;;;12.83;100.00;101732.34;4945285;28;20042;-79
2023/09/27 01:23:00;;;;;;;12.65;6.63;;;;;;;12.82;100.00;101730.69;4918216;28;20428;-77
2023/09/27 01:25:37;;;;;;;9.77;6.05;;;;;;;12.84;100.00;101751.38;4951144;28;20542;-79
2023/09/27 01:28:06;;;;;;;13.20;7.18;;;;;;;12.83;100.00;101768.78;4949231;28;20506;-79
2023/09/27 01:30:34;;;;;;;7.68;5.65;;;;;;;12.84;100.00;101765.19;4937460;28;20040;-77
2023/09/27 01:33:07;;;;;;;11.63;5.85;;;;;;;12.84;100.00;101759.19;4948191;28;20055;-77
2023/09/27 01:35:39;;;;;;;10.48;6.50;;;;;;;12.82;100.00;101754.13;4937615;29;20046;-77
2023/09/27 01:38:06;;;;;;;10.82;6.75;;;;;;;12.78;100.00;101757.16;4933090;28;20086;-78
2023/09/27 01:40:33;;;;;;;14.82;6.57;;;;;;;12.72;100.00;101749.97;4957397;28;20097;-77
2023/09/27 01:42:59;;;;;;;13.75;6.43;;;;;;;12.68;100.00;101743.38;4928634;28;20767;-77
2023/09/27 01:45:25;;;;;;;10.30;5.95;;;;;;;12.64;100.00;101743.69;4929730;29;20031;-78
2023/09/27 01:47:51;;;;;;;10.85;6.63;;;;;;;12.65;100.00;101753.13;4934768;28;20039;-77
2023/09/27 01:50:19;;;;;;;9.90;6.28;;;;;;;12.66;100.00;101749.56;4933958;28;20028;-78
2023/09/27 01:52:46;;;;;;;10.70;5.88;;;;;;;12.66;100.00;101751.38;4937632;28;20053;-78
2023/09/27 01:55:13;;;;;;;13.75;6.28;;;;;;;12.65;100.00;101749.72;4952570;28;20127;-77
2023/09/27 01:57:38;;;;;;;15.68;6.00;;;;;;;12.65;100.00;101745.31;4941117;28;20039;-77
2023/09/27 02:00:08;;;;;;;11.38;6.13;;;;;;;12.63;100.00;101747.25;4918799;28;20058;-79
2023/09/27 02:02:38;;;;;;;16.33;5.82;;;;;;;12.59;100.00;101745.91;4954077;28;20655;-77
2023/09/27 02:05:04;;;;;;;10.85;6.05;;;;;;;12.55;100.00;101743.75;4924387;28;20075;-77
2023/09/27 02:07:30;;;;;;;11.82;6.47;;;;;;;12.49;100.00;101734.75;4935375;28;20473;-78
2023/09/27 02:09:56;;;;;;;9.77;5.47;;;;;;;12.42;100.00;101739.72;4937469;28;20042;-78
2023/09/27 02:12:21;;;;;;;8.48;5.38;;;;;;;12.38;100.00;101734.94;4935232;29;20082;-78
2023/09/27 02:14:47;;;;;;;10.00;5.75;;;;;;;12.35;100.00;101738.66;4954570;28;20038;-77
2023/09/27 02:17:12;;;;;;;8.65;5.55;;;;;;;12.34;100.00;101725.78;4937653;28;20071;-78
2023/09/27 02:19:38;;;;;;;9.10;5.60;;;;;;;12.28;100.00;101727.19;4917348;28;20035;-78
2023/09/27 02:22:03;;;;;;;8.57;5.57;;;;;;;12.24;100.00;101731.88;4936542;28;20503;-77
2023/09/27 02:24:29;;;;;;;9.25;5.63;;;;;;;12.22;100.00;101713.00;4928632;28;20040;-78
2023/09/27 02:26:54;;;;;;;8.00;4.90;;;;;;;12.20;100.00;101712.31;4937277;28;20031;-77
2023/09/27 02:29:21;;;;;;;9.40;5.45;;;;;;;12.16;100.00;101705.75;4934616;28;20034;-78
2023/09/27 02:31:46;;;;;;;8.23;4.85;;;;;;;12.15;100.00;101704.13;4947945;28;21496;-78
2023/09/27 02:34:16;;;;;;;11.73;5.68;;;;;;;12.14;100.00;101699.06;4943883;28;20039;-78
2023/09/27 02:36:42;;;;;;;14.30;5.82;;;;;;;12.12;100.00;101701.00;4940133;28;20114;-78
2023/09/27 02:39:10;;;;;;;18.88;5.93;;;;;;;12.08;100.00;101698.69;4910581;28;20042;-77
2023/09/27 02:41:35;;;;;;;11.38;5.97;;;;;;;12.07;100.00;101704.00;4940270;28;20031;-78
2023/09/27 02:44:01;;;;;;;12.45;6.28;;;;;;;12.07;100.00;101697.06;4934168;28;20039;-78
2023/09/27 02:46:26;;;;;;;10.63;6.30;;;;;;;12.05;100.00;101703.34;4931872;29;20047;-78
2023/09/27 02:48:52;;;;;;;14.52;5.80;;;;;;;12.03;100.00;101707.88;4947770;28;20042;-78
2023/09/27 02:51:18;;;;;;;10.23;5.55;;;;;;;12.00;100.00;101709.00;4945558;28;20034;-78
2023/09/27 02:53:44;;;;;;;10.60;6.13;;;;;;;11.98;100.00;101707.47;4949160;28;20183;-77
2023/09/27 02:56:11;;;;;;;9.98;6.22;;;;;;;11.97;100.00;101716.25;4932031;28;20050;-78
2023/09/27 02:58:37;;;;;;;15.35;5.43;;;;;;;11.98;100.00;101715.28;4921446;28;20075;-78
2023/09/27 03:01:04;;;;;;;13.43;6.05;;;;;;;11.96;100.00;101717.19;4931884;28;20035;-79
2023/09/27 03:03:30;;;;;;;11.48;5.45;;;;;;;11.90;100.00;101707.38;4947232;28;20042;-79
2023/09/27 03:05:57;;;;;;;7.78;6.05;;;;;;;11.86;100.00;101706.81;4933541;28;20518;-80
2023/09/27 03:08:26;;;;;;;12.32;5.32;;;;;;;11.82;100.00;101695.88;4934221;29;20031;-78
2023/09/27 03:10:52;;;;;;;11.48;5.95;;;;;;;11.78;100.00;101689.34;4937464;28;20036;-78
2023/09/27 03:13:18;;;;;;;17.60;8.27;;;;;;;11.84;100.00;101686.16;4938652;28;20507;-78
2023/09/27 03:15:55;;;;;;;9.70;6.20;;;;;;;11.79;100.00;101687.53;4933795;28;20038;-77
2023/09/27 03:18:21;;;;;;;11.30;7.18;;;;;;;11.74;100.00;101687.97;4947212;28;20058;-78
2023/09/27 03:20:47;;;;;;;10.48;6.38;;;;;;;11.72;100.00;101683.91;4918227;28;20390;-78
2023/09/27 03:23:12;;;;;;;12.55;6.93;;;;;;;11.71;100.00;101683.06;4936659;28;20044;-78
2023/09/27 03:25:38;;;;;;;15.00;6.28;;;;;;;11.73;100.00;101690.72;4935559;28;20395;-78
2023/09/27 03:28:04;;;;;;;14.98;6.75;;;;;;;11.74;100.00;101698.38;4934058;28;20046;-78
2023/09/27 03:30:30;;;;;;;11.77;6.55;;;;;;;11.73;100.00;101688.94;4933648;28;20039;-78
2023/09/27 03:32:55;;;;;;;11.95;7.28;;;;;;;11.69;100.00;101698.78;4923218;28;20039;-80
2023/09/27 03:35:21;;;;;;;13.65;6.93;;;;;;;11.66;100.00;101699.09;4936876;28;20506;-79
2023/09/27 03:37:48;;;;;;;15.60;6.68;;;;;;;11.66;100.00;101704.28;4937512;28;20047;-79
2023/09/27 03:40:13;;;;;;;9.60;6.47;;;;;;;11.66;100.00;101706.88;4935994;28;20035;-79
2023/09/27 03:42:42;;;;;;;13.57;7.00;;;;;;;11.65;100.00;101707.81;4954445;28;20042;-79
2023/09/27 03:45:08;;;;;;;17.05;6.22;;;;;;;11.63;100.00;101701.97;4932449;28;20093;-80
2023/09/27 03:47:33;;;;;;;14.50;7.13;;;;;;;11.65;100.00;101701.81;4949670;28;20044;-80
2023/09/27 03:49:59;;;;;;;12.02;7.38;;;;;;;11.65;100.00;101696.63;4933798;28;20081;-79
2023/09/27 03:52:25;;;;;;;12.27;6.25;;;;;;;11.63;100.00;101691.56;4938409;28;20044;-81
2023/09/27 03:54:51;;;;;;;9.40;6.07;;;;;;;11.59;100.00;101686.81;4935663;28;20050;-79
2023/09/27 03:57:17;;;;;;;13.38;6.88;;;;;;;11.58;100.00;101690.34;4936769;28;20569;-80
2023/09/27 03:59:43;;;;;;;13.70;7.60;;;;;;;11.57;100.00;101693.91;4915976;28;20031;-79
2023/09/27 04:02:08;;;;;;;10.63;6.95;;;;;;;11.54;100.00;101694.19;4932967;28;20051;-80
2023/09/27 04:04:34;;;;;;;18.75;6.97;;;;;;;11.52;100.00;101698.72;4937510;28;20039;-79
2023/09/27 04:07:00;;;;;;;14.85;6.75;;;;;;;11.50;100.00;101702.25;4953469;28;20630;-82
2023/09/27 04:09:27;;;;;;;12.10;6.65;;;;;;;11.50;100.00;101707.44;4925033;28;20034;-79
2023/09/27 04:11:52;;;;;;;15.20;7.13;;;;;;;11.48;100.00;101719.75;4925888;28;20032;-80
2023/09/27 04:14:17;;;;;;;12.18;6.85;;;;;;;11.47;100.00;101733.72;4936779;28;20039;-79
2023/09/27 04:16:43;;;;;;;12.10;7.43;;;;;;;11.47;100.00;101730.28;4938176;29;20031;-80
2023/09/27 04:19:08;;;;;;;13.02;6.75;;;;;;;11.47;100.00;101731.13;4952752;28;20510;-79
2023/09/27 04:21:34;;;;;;;12.68;7.22;;;;;;;11.48;100.00;101730.16;4925084;29;20101;-79
2023/09/27 04:23:59;;;;;;;11.68;7.13;;;;;;;11.47;100.00;101731.13;4939428;28;20032;-81
2023/09/27 04:26:25;;;;;;;12.32;7.20;;;;;;;11.46;100.00;101729.47;4921693;28;20050;-78
2023/09/27 04:28:54;;;;;;;13.23;7.45;;;;;;;11.40;100.00;101724.03;4937134;28;20084;-79
2023/09/27 04:31:19;;;;;;;11.50;6.95;;;;;;;11.34;100.00;101721.97;4939912;28;20043;-80
2023/09/27 04:33:47;;;;;;;13.73;7.10;;;;;;;11.31;100.00;101738.66;4952647;28;20105;-83
2023/09/27 04:36:15;;;;;;;13.15;7.60;;;;;;;11.29;100.00;101736.19;4915618;28;21636;-79
2023/09/27 04:38:44;;;;;;;13.13;7.72;;;;;;;11.26;100.00;101728.69;4942197;28;20046;-80
2023/09/27 04:41:11;;;;;;;18.65;8.60;;;;;;;11.28;100.00;101723.34;4921021;28;20410;-82
2023/09/27 04:43:36;;;;;;;13.02;7.78;;;;;;;11.23;100.00;101720.34;4950121;28;20046;-82
2023/09/27 04:46:02;;;;;;;19.33;8.05;;;;;;;11.18;100.00;101723.34;4924625;28;20031;-79
2023/09/27 04:48:28;;;;;;;14.73;7.72;;;;;;;11.13;100.00;101719.53;4937617;28;20442;-79
2023/09/27 04:50:53;;;;;;;14.60;7.63;;;;;;;11.09;100.00;101709.44;4942460;28;20044;-81
2023/09/27 04:53:19;;;;;;;17.55;7.68;;;;;;;11.07;100.00;101713.09;4936027;28;20074;-80
2023/09/27 04:55:44;;;;;;;12.82;7.70;;;;;;;11.04;100.00;101713.41;4932365;29;20050;-80
2023/09/27 04:58:12;;;;;;;15.95;7.47;;;;;;;11.00;100.00;101704.22;4939955;28;20049;-82
2023/09/27 05:00:37;;;;;;;15.50;7.90;;;;;;;10.94;100.00;101707.38;4948754;28;20839;-79
2023/09/27 05:03:03;;;;;;;14.32;6.90;;;;;;;10.91;100.00;101714.47;4937163;28;20047;-79
2023/09/27 05:05:28;;;;;;;15.48;7.18;;;;;;;10.90;100.00;101730.97;4960484;28;20036;-79
2023/09/27 05:07:54;;;;;;;15.48;6.80;;;;;;;10.93;100.00;101732.50;4923819;28;20039;-80
2023/09/27 05:10:19;;;;;;;14.05;7.35;;;;;;;10.96;100.00;101744.38;4941302;28;20043;-79
2023/09/27 05:12:45;;;;;;;12.85;7.88;;;;;;;10.97;100.00;101748.63;4931246;28;20073;-79
2023/09/27 05:15:10;;;;;;;11.45;7.13;;;;;;;10.99;100.00;101744.94;4925860;28;20039;-79
2023/09/27 05:17:36;;;;;;;10.32;6.93;;;;;;;11.01;100.00;101742.19;4945728;28;20047;-81
2023/09/27 05:20:06;;;;;;;11.13;7.68;;;;;;;11.01;100.00;101742.19;4939079;29;20039;-80
2023/09/27 05:22:33;;;;;;;13.98;7.35;;;;;;;10.98;100.00;101743.31;4948516;28;20485;-80
2023/09/27 05:24:59;;;;;;;10.25;7.22;;;;;;;10.96;100.00;101747.78;4956830;28;20066;-80
2023/09/27 05:27:24;;;;;;;13.18;7.50;;;;;;;10.94;100.00;101743.69;4933428;28;20051;-85
2023/09/27 05:29:50;;;;;;;12.75;7.00;;;;;;;10.90;100.00;101738.75;4943323;28;20491;-80
2023/09/27 05:32:15;;;;;;;11.50;7.35;;;;;;;10.85;100.00;101734.94;4940449;28;20074;-79
2023/09/27 05:34:40;;;;;;;14.23;7.03;;;;;;;10.83;100.00;101739.44;4940188;28;20047;-79
2023/09/27 05:37:06;;;;;;;12.32;6.85;;;;;;;10.82;100.00;101751.59;4941057;28;20028;-84
2023/09/27 05:39:31;;;;;;;14.52;7.53;;;;;;;10.87;100.00;101754.63;4929743;28;20940;-78
2023/09/27 05:41:57;;;;;;;14.50;6.68;;;;;;;10.90;100.00;101751.75;4939822;28;20038;-79
2023/09/27 05:44:22;;;;;;;14.40;7.40;;;;;;;10.93;100.00;101737.69;4937028;28;20035;-80
2023/09/27 05:46:48;;;;;;;12.20;7.90;;;;;;;10.96;100.00;101732.22;4959819;28;20536;-79
2023/09/27 05:49:15;;;;;;;14.20;7.38;;;;;;;10.99;100.00;101741.53;4920403;28;20059;-79
2023/09/27 05:51:41;;;;;;;12.02;6.85;;;;;;;11.01;100.00;101750.81;4941709;28;20031;-78
2023/09/27 05:54:07;;;;;;;13.32;7.45;;;;;;;11.04;100.00;101731.56;4927032;28;20035;-79
2023/09/27 05:56:37;;;;;;;12.45;7.40;;;;;;;11.09;100.00;101726.75;4935833;28;20062;-79
2023/09/27 05:59:08;;;;;;;13.90;7.70;;;;;;;11.13;100.00;101724.72;4946009;28;20071;-78
2023/09/27 06:01:34;;;;;;;12.02;7.65;;;;;;;11.14;100.00;101742.75;4952500;28;20050;-79
2023/09/27 06:04:00;;;;;;;15.35;7.35;;;;;;;11.18;100.00;101751.09;4936876;28;20148;-79
2023/09/27 06:06:25;;;;;;;19.38;8.55;;;;;;;11.22;100.00;101752.44;4923284;28;20074;-79
2023/09/27 06:08:51;;;;;;;9.88;6.88;;;;;;;11.25;100.00;101747.81;4932223;28;20040;-78
2023/09/27 06:11:17;;;;;;;11.15;6.95;;;;;;;11.29;100.00;101745.75;4937252;28;20553;-79
2023/09/27 06:13:42;;;;;;;16.60;8.50;;;;;;;11.32;100.00;101742.06;4940666;28;20047;-79
2023/09/27 06:16:16;;;;;;;17.83;9.65;;;;;;;11.46;100.00;101744.25;4922122;28;20039;-80
2023/09/27 06:18:42;;;;;;;17.58;11.48;;;;;;;11.73;100.00;101725.31;4933577;28;20047;-78
2023/09/27 06:21:08;;;;;;;20.23;12.90;;;;;;;11.81;100.00;101725.44;4921595;28;20039;-79
2023/09/27 06:23:35;;;;;;;18.00;13.25;;;;;;;11.94;100.00;101721.72;4938022;28;20051;-79
2023/09/27 06:26:01;;;;;;;21.48;13.43;;;;;;;11.97;100.00;101724.84;4936992;29;20258;-77
2023/09/27 06:28:27;;;;;;;23.23;13.55;;;;;;;11.96;100.00;101722.41;4942888;28;20078;-78
2023/09/27 06:30:52;;;;;;;23.10;14.52;;;;;;;12.03;100.00;101719.06;4922518;28;20039;-77
2023/09/27 06:33:18;;;;;;;20.50;14.27;;;;;;;12.08;100.00;101724.69;4922422;28;20110;-78
2023/09/27 06:35:43;;;;;;;28.58;15.05;;;;;;;12.02;100.00;101734.84;4932977;28;20078;-77
2023/09/27 06:38:09;;;;;;;24.85;15.15;;;;;;;12.11;100.00;101731.38;4935233;28;20039;-78
2023/09/27 06:40:35;;;;;;;24.10;15.18;;;;;;;12.15;100.00;101727.53;4935189;28;20090;-77
2023/09/27 06:43:01;;;;;;;24.13;14.93;;;;;;;12.16;100.00;101728.34;4923312;28;20039;-79
2023/09/27 06:45:27;;;;;;;25.10;15.25;;;;;;;12.14;100.00;101738.88;4934422;28;20042;-79
2023/09/27 06:47:52;;;;;;;27.15;14.95;;;;;;;12.07;100.00;101727.41;4939601;28;21561;-79
2023/09/27 06:50:19;;;;;;;23.25;14.98;;;;;;;12.17;100.00;101733.41;4936609;28;20125;-77
2023/09/27 06:52:45;;;;;;;24.55;15.95;;;;;;;12.18;100.00;101729.03;4936136;28;20047;-78
2023/09/27 06:55:12;;;;;;;26.58;14.73;;;;;;;12.23;100.00;101738.03;4955910;28;20122;-78
2023/09/27 06:57:40;;;;;;;24.83;14.88;;;;;;;12.20;100.00;101733.09;4931701;28;20035;-78
2023/09/27 07:00:12;;;;;;;23.58;13.80;;;;;;;12.21;100.00;101742.56;4926032;28;20437;-78
2023/09/27 07:02:41;;;;;;;22.83;15.35;;;;;;;12.31;100.00;101752.09;4923634;28;20549;-79
2023/09/27 07:05:08;;;;;;;19.60;13.68;;;;;;;12.33;100.00;101752.75;4937999;28;20035;-78
2023/09/27 07:07:34;;;;;;;21.52;12.98;;;;;;;12.40;100.00;101743.44;4935356;28;20584;-79
2023/09/27 07:09:59;;;;;;;31.48;15.13;;;;;;;12.45;100.00;101738.59;4932915;29;20036;-79
2023/09/27 07:12:25;;;;;;;18.40;11.15;;;;;;;12.54;100.00;101737.72;4929840;28;20635;-78
2023/09/27 07:14:50;;;;;;;23.85;13.68;;;;;;;12.83;100.00;101736.72;4938833;28;20043;-78
2023/09/27 07:17:17;;;;;;;23.23;13.82;;;;;;;13.12;100.00;101727.88;4935169;28;20047;-78
2023/09/27 07:19:43;;;;;;;18.70;13.07;;;;;;;13.22;100.00;101729.44;4946440;28;20032;-77
2023/09/27 07:22:10;;;;;;;17.88;11.82;;;;;;;13.24;100.00;101727.50;4936746;28;20057;-77
2023/09/27 07:24:36;;;;;;;18.17;13.05;;;;;;;13.38;100.00;101731.38;4935006;28;20109;-78
2023/09/27 07:27:02;;;;;;;19.33;12.55;;;;;;;13.42;100.00;101732.69;4922477;28;20035;-77
2023/09/27 07:29:28;;;;;;;17.13;12.15;;;;;;;13.52;100.00;101722.16;4923694;28;20129;-78
2023/09/27 07:31:53;;;;;;;20.83;12.52;;;;;;;13.63;100.00;101719.31;4935404;28;20101;-77
2023/09/27 07:34:20;;;;;;;19.23;12.07;;;;;;;13.77;100.00;101723.16;4938474;28;20070;-80
2023/09/27 07:36:45;;;;;;;20.13;12.65;;;;;;;13.95;100.00;101715.25;4923647;28;20045;-78
2023/09/27 07:39:11;;;;;;;18.08;12.38;;;;;;;14.33;100.00;101720.94;4921907;28;20047;-79
2023/09/27 07:41:37;;;;;;;20.45;12.40;;;;;;;14.78;100.00;101718.94;4940643;28;20062;-78
2023/09/27 07:44:06;;;;;;;21.63;11.38;;;;;;;15.17;100.00;101713.91;4926954;28;20099;-76
2023/09/27 07:46:32;;;;;;;17.65;10.18;;;;;;;15.13;100.00;101704.78;4937307;28;20046;-78
2023/09/27 07:48:58;;;;;;;17.90;10.57;;;;;;;15.01;100.00;101706.06;4934042;28;20035;-78
2023/09/27 07:51:24;;;;;;;18.33;9.95;;;;;;;15.10;100.00;101709.50;4940347;28;20514;-78
2023/09/27 07:53:49;;;;;;;15.85;9.80;;;;;;;15.16;100.00;101720.13;4937669;28;20086;-78
2023/09/27 07:56:23;;;;;;;14.95;9.93;;;;;;;15.31;100.00;101714.22;4936007;28;20406;-78
2023/09/27 07:58:51;;;;;;;13.00;9.45;;;;;;;15.58;100.00;101713.88;4937461;29;20118;-78
2023/09/27 08:01:21;;;;;;;16.17;9.02;;;;;;;16.21;100.00;101706.16;4942351;28;20047;-79
2023/09/27 08:03:48;;;;;;;13.40;8.98;;;;;;;16.76;100.00;101704.34;4935433;28;20047;-79
2023/09/27 08:06:16;;;;;;;13.60;9.13;;;;;;;17.05;98.00;101700.25;4953404;28;20035;-79
2023/09/27 08:08:42;;;;;;;13.95;8.63;;;;;;;16.96;96.71;101690.81;4939849;29;20039;-78
2023/09/27 08:11:11;;;;;;;11.40;7.45;;;;;;;16.76;96.91;101693.88;4931813;28;20046;-75
2023/09/27 08:13:37;;;;;;;10.38;8.05;;;;;;;16.45;98.57;101697.34;4931271;28;20031;-79
2023/09/27 08:16:06;;;;;;;17.75;8.60;;;;;;;16.25;99.76;101693.53;4936918;28;20035;-76
2023/09/27 08:18:32;;;;;;;17.38;8.95;;;;;;;16.03;100.00;101687.25;4916051;28;20054;-77
2023/09/27 08:20:58;;;;;;;11.57;8.38;;;;;;;15.90;100.00;101674.75;4926431;29;20511;-78
2023/09/27 08:23:24;;;;;;;15.60;8.15;;;;;;;15.75;100.00;101675.44;4937488;28;20040;-77
2023/09/27 08:25:52;;;;;;;14.48;8.00;;;;;;;15.75;100.00;101667.59;4934884;28;20046;-76
2023/09/27 08:28:17;;;;;;;11.98;8.20;;;;;;;15.84;100.00;101654.50;4917097;28;20050;-75
2023/09/27 08:30:43;;;;;;;13.18;8.15;;;;;;;15.95;100.00;101654.13;4933706;28;20414;-77
2023/09/27 08:33:09;;;;;;;14.45;8.65;;;;;;;16.46;100.00;101649.28;4930546;28;20095;-75
2023/09/27 08:35:34;;;;;;;14.88;7.97;;;;;;;16.77;98.92;101650.19;4933721;28;20042;-75
2023/09/27 08:38:00;;;;;;;11.23;8.15;;;;;;;16.79;99.49;101630.69;4947048;28;20031;-76
2023/09/27 08:40:25;;;;;;;11.02;7.90;;;;;;;17.15;96.49;101644.97;4916038;28;20042;-77
2023/09/27 08:42:58;;;;;;;15.13;7.50;;;;;;;17.30;94.56;101646.59;4935438;28;20414;-76
2023/09/27 08:45:24;;;;;;;12.73;7.25;;;;;;;17.44;93.34;101659.88;4941248;28;20038;-77
2023/09/27 08:47:50;;;;;;;10.52;7.63;;;;;;;17.54;92.34;101670.94;4931906;28;20046;-78
2023/09/27 08:50:18;;;;;;;10.18;7.95;;;;;;;17.66;92.27;101669.47;4954708;28;20053;-76
2023/09/27 08:52:48;;;;;;;13.93;7.65;;;;;;;17.65;92.57;101667.03;4939852;28;20047;-76
2023/09/27 08:55:15;;;;;;;11.65;7.82;;;;;;;17.67;91.25;101672.94;4938741;28;20041;-77
2023/09/27 08:57:48;;;;;;;18.65;6.68;;;;;;;17.84;91.19;101676.16;4950077;28;20034;-77
2023/09/27 09:00:26;;;;;;;13.05;7.22;;;;;;;18.09;90.91;101674.88;4921810;28;20177;-77
2023/09/27 09:02:57;;;;;;;10.38;6.60;;;;;;;18.40;89.36;101665.94;4936389;28;20066;-78
2023/09/27 09:05:24;;;;;;;12.48;7.00;;;;;;;18.55;88.78;101671.09;4935153;28;20039;-80
2023/09/27 09:07:50;;;;;;;12.32;6.28;;;;;;;18.71;88.18;101667.41;4942394;28;20036;-78
2023/09/27 09:10:16;;;;;;;10.15;6.57;;;;;;;18.81;86.68;101661.88;4926512;29;20041;-76
2023/09/27 09:12:43;;;;;;;10.23;6.25;;;;;;;18.94;84.77;101661.16;4946036;28;20039;-77
2023/09/27 09:15:34;;;;;;;13.20;7.35;;;;;;;18.90;85.81;101673.06;4936252;28;20523;-77
2023/09/27 09:18:06;;;;;;;10.38;6.30;;;;;;;18.78;84.80;101675.34;4958551;28;20499;-77
2023/09/27 09:20:51;;;;;;;12.23;7.30;;;;;;;18.62;85.20;101668.53;4941185;28;20129;-78
2023/09/27 09:23:35;;;;;;;9.40;6.30;;;;;;;18.74;86.62;101653.91;4949756;28;20532;-78
2023/09/27 09:26:03;;;;;;;11.38;5.78;;;;;;;18.98;85.89;101649.28;4939911;28;20470;-78
2023/09/27 09:28:29;;;;;;;9.77;6.05;;;;;;;19.20;81.79;101647.41;4918235;28;20079;-76
2023/09/27 09:30:55;;;;;;;9.68;5.97;;;;;;;19.50;79.54;101640.09;4938136;29;20063;-77
2023/09/27 09:33:22;;;;;;;10.07;5.72;;;;;;;19.63;80.11;101640.16;4938387;28;20046;-77
2023/09/27 09:35:48;;;;;;;12.02;6.90;;;;;;;19.68;78.90;101636.13;4928188;28;20054;-77
2023/09/27 09:38:26;;;;;;;10.52;5.90;;;;;;;19.80;79.90;101643.28;4930690;28;20417;-78
2023/09/27 09:40:57;;;;;;;9.77;6.22;;;;;;;19.94;78.55;101641.50;4927592;28;20035;-76
2023/09/27 09:43:30;;;;;;;9.43;5.93;;;;;;;20.02;79.42;101641.34;4944042;28;20047;-78
2023/09/27 09:45:56;;;;;;;13.73;6.25;;;;;;;20.02;79.22;101645.78;4948135;28;20110;-78
2023/09/27 09:48:23;;;;;;;9.88;5.80;;;;;;;20.08;79.41;101655.53;4930987;28;20127;-77
2023/09/27 09:50:49;;;;;;;8.38;5.78;;;;;;;20.22;79.99;101651.91;4932223;28;20039;-76
2023/09/27 09:53:16;;;;;;;9.18;5.78;;;;;;;20.37;78.46;101649.09;4932148;28;20035;-76
2023/09/27 09:55:44;;;;;;;12.60;5.07;;;;;;;20.53;76.00;101645.28;4930879;28;20393;-76
2023/09/27 09:58:31;;;;;;;7.32;5.05;;;;;;;20.64;76.14;101638.59;4948968;28;20058;-76
2023/09/27 10:01:00;;;;;;;11.10;5.47;;;;;;;20.65;76.40;101642.88;4936418;28;20038;-78
2023/09/27 10:03:32;;;;;;;9.98;4.32;;;;;;;20.78;75.26;101644.72;4948520;28;20130;-80
2023/09/27 10:06:01;;;;;;;7.20;4.80;;;;;;;20.78;73.62;101642.88;4942706;28;20039;-77
2023/09/27 10:08:33;;;;;;;10.60;5.28;;;;;;;20.63;75.20;101650.19;4928525;28;20418;-78
2023/09/27 10:11:00;;;;;;;9.07;5.15;;;;;;;20.37;76.03;101659.63;4932145;28;20043;-75
2023/09/27 10:13:26;;;;;;;6.78;4.82;;;;;;;20.29;75.53;101651.94;4932871;28;21047;-77
2023/09/27 10:15:52;;;;;;;10.57;4.60;;;;;;;20.34;76.11;101646.88;4948550;28;20054;-79
2023/09/27 10:18:24;;;;;;;11.02;4.75;;;;;;;20.18;77.46;101645.41;4949791;28;20031;-78
2023/09/27 10:21:05;;;;;;;8.10;3.67;;;;;;;20.67;77.48;101637.41;4950473;28;20118;-77
2023/09/27 10:23:34;;;;;;;9.38;5.03;;;;;;;20.94;75.92;101631.09;4943675;28;20035;-76
2023/09/27 10:26:25;;;;;;;10.57;4.35;;;;;;;21.06;73.32;101633.94;4951587;28;20035;-77
2023/09/27 10:29:18;;;;;;;9.93;4.85;;;;;;;21.13;74.10;101633.91;4946640;28;20039;-77
2023/09/27 10:31:56;;;;;;;12.85;4.82;;;;;;;21.41;73.26;101628.34;4943315;28;20043;-77
2023/09/27 10:34:24;;;;;;;9.95;4.95;;;;;;;21.66;69.74;101625.88;4945399;28;20058;-77
2023/09/27 10:36:49;;;;;;;13.93;4.68;;;;;;;21.91;69.63;101623.31;4932490;28;20602;-78
2023/09/27 10:39:15;;;;;;;11.73;5.43;;;;;;;21.66;67.90;101625.88;4932942;28;20035;-76
2023/09/27 10:41:46;;;;;;;9.30;5.15;;;;;;;21.72;69.34;101621.59;4945472;28;20027;-78
2023/09/27 10:44:28;;;;;;;7.97;5.72;;;;;;;21.82;69.72;101623.78;4930908;28;20410;-78
2023/09/27 10:46:54;;;;;;;12.90;4.95;;;;;;;21.69;70.56;101617.53;4930692;28;20023;-79
2023/09/27 10:49:24;;;;;;;9.82;4.72;;;;;;;21.68;72.02;101615.09;4936127;28;20553;-78
2023/09/27 10:51:51;;;;;;;12.68;4.75;;;;;;;21.77;70.13;101613.81;4932103;28;21242;-78
2023/09/27 10:54:24;;;;;;;9.32;4.32;;;;;;;21.72;71.56;101605.75;4935671;28;20050;-78
2023/09/27 10:56:56;;;;;;;6.57;4.15;;;;;;;21.88;69.68;101596.53;4937664;28;20086;-77
2023/09/27 10:59:22;;;;;;;9.93;4.05;;;;;;;21.85;72.20;101586.38;4921346;28;20050;-78
2023/09/27 11:01:48;;;;;;;8.73;3.90;;;;;;;21.87;69.74;101585.16;4940089;28;20031;-77
2023/09/27 11:04:13;;;;;;;9.13;3.72;;;;;;;22.00;68.55;101579.00;4939017;28;20066;-77
2023/09/27 11:06:38;;;;;;;12.88;5.57;;;;;;;22.10;68.43;101574.03;4942922;28;20057;-78
2023/09/27 11:09:08;;;;;;;9.52;5.00;;;;;;;22.06;68.45;101577.34;4935206;28;20529;-78
2023/09/27 11:11:34;;;;;;;9.85;5.05;;;;;;;21.84;72.26;101577.66;4937100;28;20079;-79
2023/09/27 11:14:00;;;;;;;9.13;4.07;;;;;;;21.80;72.95;101578.31;4936858;28;20046;-78